Home   Weather   France   Avignon   Past weeks
Flag for France

Past Weather in Avignon, Vaucluse, France — Yesterday and Last 2 Weeks

Currently: 63 °F. Clear. (Weather station: Caumont, France). See more current weather

Past Weather in Avignon — Graph

°F

Avignon Temperature Yesterday

Maximum temperature yesterday: 79 °F (at 2:00 pm)
Minimum temperature yesterday: 52 °F (at 4:30 am)
Average temperature yesterday: 66 °F

High & Low Weather Summary for the Past Weeks

 TemperatureHumidityPressure
High79 °F (May 19, 4:00 pm)100% (May 12, 7:00 am)30.09 "Hg (May 12, 7:00 am)
Low45 °F (May 17, 6:00 am)36% (May 22, 4:00 pm)29.65 "Hg (May 14, 7:00 pm)
Average63 °F73%29.90 "Hg
* Reported May 11 10:30 pm — May 26 10:30 pm, Avignon. Weather by CustomWeather, © 2024

Note: Actual official high and low records may vary slightly from our data, if they occured in-between our weather recording intervals... More about our weather records

Avignon Weather History for the Previous 24 Hours

Scroll right to see more
 ConditionsComfort  
Time TempWeatherWind HumidityBarometerVisibility
10:30 pm
Sun, May 26
66 °FClear.3 mph78%30.09 "Hg10 mi
10:00 pm64 °FClear.3 mph83%30.09 "Hg10 mi
9:30 pm66 °FClear.6 mph78%30.07 "Hg10 mi
9:00 pm68 °FSunny.7 mph73%30.07 "Hg10 mi
8:30 pm70 °FSunny.8 mph69%30.07 "Hg10 mi
8:00 pm72 °FSunny.10 mph65%30.07 "Hg10 mi
7:00 pm75 °FPassing clouds.10 mph54%30.04 "HgN/A
6:30 pm75 °FSunny.10 mph54%30.04 "Hg10 mi
6:00 pm77 °FSunny.12 mph54%30.04 "Hg10 mi
5:30 pm77 °FPassing clouds.12 mph54%30.04 "HgN/A
5:00 pm77 °FPassing clouds.13 mph54%30.04 "HgN/A
4:30 pm79 °FPassing clouds.9 mph48%30.04 "HgN/A
4:00 pm79 °FPassing clouds.10 mph51%30.04 "HgN/A
3:00 pm79 °FPassing clouds.8 mph48%30.04 "HgN/A
2:30 pm79 °FPassing clouds.8 mph48%30.07 "HgN/A
2:00 pm79 °FPassing clouds.5 mph48%30.07 "HgN/A
1:00 pm77 °FPassing clouds.5 mph51%30.07 "HgN/A
12:30 pm75 °FSunny.3 mph50%30.07 "Hg10 mi
12:00 pm73 °FSunny.3 mph50%30.07 "Hg10 mi
11:30 am72 °FPassing clouds.3 mph53%30.07 "HgN/A
11:00 am70 °FSunny.2 mph57%30.07 "Hg10 mi
10:30 am68 °FSunny.3 mph56%30.07 "Hg10 mi
10:00 am68 °FSunny.3 mph56%30.07 "Hg10 mi
9:30 am66 °FSunny.2 mph60%30.07 "Hg10 mi
9:00 am64 °FSunny.2 mph64%30.07 "Hg10 mi
8:30 am61 °FPassing clouds.3 mph68%30.07 "HgN/A
8:00 am59 °FSunny.3 mph72%30.07 "Hg10 mi
7:30 am57 °FSunny.2 mph82%30.07 "Hg10 mi
7:00 am55 °FSunny.3 mph82%30.07 "Hg10 mi
6:30 am55 °FSunny.3 mph77%30.07 "Hg10 mi
6:00 am55 °FClear.3 mph77%30.04 "Hg10 mi
5:30 am55 °FClear.6 mph77%30.04 "Hg10 mi
5:00 am52 °FClear.3 mph88%30.04 "Hg10 mi
4:30 am52 °FClear.1 mph88%30.04 "Hg10 mi
3:30 am54 °FClear.2 mph88%30.07 "Hg10 mi
3:00 am54 °FClear.No wind82%30.07 "Hg10 mi
2:30 am57 °FClear.3 mph82%30.07 "Hg10 mi
2:00 am57 °FClear.1 mph82%30.07 "Hg10 mi
1:30 am57 °FClear.3 mph88%30.07 "Hg10 mi
12:30 am59 °FClear.2 mph82%30.07 "Hg10 mi
12:00 am59 °FClear.2 mph77%30.07 "Hg10 mi
Weather by CustomWeather, © 2024

See weather overview